Time;durP1;ratioP1;P1;durP2;ratioP2;P2;SDS_P1;SDS_P2;PMS_P1;PMS_P2;Temp;Humidity;BMP_temperature;BMP_pressure;BME280_temperature;BME280_humidity;BME280_pressure;Samples;Min_cycle;Max_cycle;Signal;HPM_P1;HPM_P2
2023/04/11 00:01:34;;;;;;;7.05;1.70;;;;;;;7.05;100.00;100563.19;10382875;28;20029;-75
2023/04/11 00:06:34;;;;;;;3.22;1.10;;;;;;;6.97;100.00;100594.47;10411410;28;20033;-80
2023/04/11 00:11:35;;;;;;;10.70;1.60;;;;;;;6.87;100.00;100591.50;10377166;28;20037;-80
2023/04/11 00:16:35;;;;;;;7.13;1.95;;;;;;;6.85;100.00;100588.16;10394128;28;20044;-80
2023/04/11 00:21:38;;;;;;;9.13;2.03;;;;;;;6.73;100.00;100565.41;10412518;28;20045;-79
2023/04/11 00:26:39;;;;;;;9.43;1.55;;;;;;;6.67;100.00;100471.44;10393538;28;20289;-75
2023/04/11 00:31:39;;;;;;;7.18;2.20;;;;;;;6.58;100.00;100492.88;10393724;28;20070;-75
2023/04/11 00:36:40;;;;;;;10.55;2.28;;;;;;;6.49;100.00;100502.50;10393198;28;20040;-77
2023/04/11 00:41:41;;;;;;;6.45;1.48;;;;;;;6.45;100.00;100507.59;10393169;28;20041;-76
2023/04/11 00:46:42;;;;;;;5.38;1.30;;;;;;;6.22;100.00;100481.06;10411394;28;20046;-71
2023/04/11 00:51:42;;;;;;;5.53;2.50;;;;;;;6.24;100.00;100509.00;10410835;28;20045;-77
2023/04/11 00:56:43;;;;;;;5.82;1.23;;;;;;;6.04;100.00;100500.28;10393140;28;20493;-76
2023/04/11 01:01:43;;;;;;;10.13;1.75;;;;;;;5.93;100.00;100520.16;10393687;28;20505;-77
2023/04/11 01:06:45;;;;;;;6.55;1.55;;;;;;;5.86;100.00;100515.63;10398835;28;20104;-76
2023/04/11 01:11:46;;;;;;;6.32;1.65;;;;;;;5.68;100.00;100499.28;10336676;28;20037;-77
2023/04/11 01:16:49;;;;;;;5.75;2.00;;;;;;;5.68;100.00;100506.63;10369774;28;20049;-76
2023/04/11 01:21:49;;;;;;;11.07;2.85;;;;;;;5.69;100.00;100490.03;10359024;28;20053;-76
2023/04/11 01:26:50;;;;;;;8.77;1.67;;;;;;;5.79;100.00;100508.59;10368816;28;20041;-77
2023/04/11 01:31:51;;;;;;;11.05;1.88;;;;;;;5.80;100.00;100500.16;10366390;28;20048;-77
2023/04/11 01:36:51;;;;;;;9.50;1.90;;;;;;;5.79;100.00;100509.44;10399343;28;20030;-77
2023/04/11 01:41:52;;;;;;;7.85;1.65;;;;;;;5.92;100.00;100530.25;10383674;28;20084;-77
2023/04/11 01:46:53;;;;;;;6.13;1.45;;;;;;;5.83;100.00;100518.81;10400896;28;20071;-76
2023/04/11 01:51:54;;;;;;;8.82;2.13;;;;;;;5.81;100.00;100534.63;10383669;28;20100;-77
2023/04/11 01:56:55;;;;;;;11.15;2.13;;;;;;;5.71;100.00;100537.06;10381489;28;20056;-76
2023/04/11 02:01:56;;;;;;;18.02;3.65;;;;;;;5.59;100.00;100534.25;10409603;28;20037;-76
2023/04/11 02:06:56;;;;;;;8.25;1.90;;;;;;;5.55;100.00;100534.97;10397296;28;20045;-76
2023/04/11 02:11:56;;;;;;;8.70;2.67;;;;;;;5.48;100.00;100535.06;10415627;28;20041;-76
2023/04/11 02:16:57;;;;;;;8.18;1.95;;;;;;;5.50;100.00;100537.53;10416324;28;20037;-76
2023/04/11 02:21:57;;;;;;;9.88;2.45;;;;;;;5.65;100.00;100547.00;10416813;28;20056;-77
2023/04/11 02:26:59;;;;;;;19.05;3.53;;;;;;;5.69;100.00;100538.38;10398863;28;20512;-77
2023/04/11 02:32:00;;;;;;;24.05;3.58;;;;;;;5.80;100.00;100548.50;10413131;28;20052;-78
2023/04/11 02:37:00;;;;;;;9.75;3.67;;;;;;;5.82;100.00;100540.91;10413911;28;20112;-76
2023/04/11 02:42:01;;;;;;;10.85;2.40;;;;;;;5.98;100.00;100553.13;10416760;28;20034;-77
2023/04/11 02:47:01;;;;;;;13.32;2.67;;;;;;;5.95;100.00;100539.91;10399565;28;20038;-77
2023/04/11 02:52:03;;;;;;;9.93;2.40;;;;;;;5.94;100.00;100521.84;10415092;28;20037;-79
2023/04/11 02:57:03;;;;;;;8.82;2.22;;;;;;;6.06;100.00;100550.06;10400530;28;20092;-78
2023/04/11 03:02:04;;;;;;;12.00;2.83;;;;;;;6.11;100.00;100539.25;10373876;28;20045;-77
2023/04/11 03:07:05;;;;;;;10.82;2.83;;;;;;;6.14;100.00;100538.81;10372442;28;20042;-77
2023/04/11 03:12:05;;;;;;;13.10;2.65;;;;;;;6.16;100.00;100535.81;10356845;28;20038;-76
2023/04/11 03:17:05;;;;;;;8.60;1.60;;;;;;;6.08;100.00;100537.00;10374943;28;20048;-77
2023/04/11 03:22:06;;;;;;;5.60;1.40;;;;;;;6.14;100.00;100543.41;10354636;28;20049;-76
2023/04/11 03:27:06;;;;;;;9.07;1.77;;;;;;;6.03;100.00;100555.97;10354192;28;20034;-78
2023/04/11 03:32:07;;;;;;;2.65;0.88;;;;;;;5.57;100.00;100472.75;10354340;28;20037;-77
2023/04/11 03:37:07;;;;;;;1.73;1.00;;;;;;;5.98;100.00;100544.94;10370736;28;20030;-79
2023/04/11 03:42:08;;;;;;;6.60;1.10;;;;;;;6.05;100.00;100553.84;10355243;28;20080;-76
2023/04/11 03:47:08;;;;;;;7.05;1.88;;;;;;;6.01;100.00;100544.44;10372582;28;20049;-74
2023/04/11 03:52:10;;;;;;;5.20;1.13;;;;;;;6.02;100.00;100540.66;10355187;28;20080;-76
2023/04/11 03:57:10;;;;;;;4.95;1.40;;;;;;;6.06;100.00;100563.72;10403906;28;20029;-77
2023/04/11 04:02:11;;;;;;;4.93;1.55;;;;;;;5.96;100.00;100558.00;10361472;28;20069;-77
2023/04/11 04:07:12;;;;;;;4.90;2.03;;;;;;;5.69;100.00;100531.00;10353965;28;20026;-78
2023/04/11 04:12:12;;;;;;;11.70;1.60;;;;;;;6.09;100.00;100559.69;10371581;28;20061;-75
2023/04/11 04:17:13;;;;;;;7.75;1.58;;;;;;;6.09;100.00;100559.69;10338977;28;20065;-76
2023/04/11 04:22:16;;;;;;;4.80;1.75;;;;;;;6.10;100.00;100564.94;10353573;28;20037;-75
2023/04/11 04:27:19;;;;;;;7.38;1.85;;;;;;;6.13;100.00;100575.38;10352434;28;20077;-77
2023/04/11 04:32:21;;;;;;;11.85;2.67;;;;;;;6.12;100.00;100579.19;10354024;28;20088;-77
2023/04/11 04:37:23;;;;;;;6.78;2.97;;;;;;;6.09;100.00;100581.56;10371423;28;20034;-76
2023/04/11 04:42:24;;;;;;;8.93;2.28;;;;;;;6.02;100.00;100562.53;10360938;28;20111;-77
2023/04/11 04:47:30;;;;;;;8.63;2.55;;;;;;;6.13;100.00;100588.22;10368322;28;20037;-78
2023/04/11 04:52:30;;;;;;;9.20;2.47;;;;;;;6.22;100.00;100589.56;10353513;28;20054;-78
2023/04/11 04:57:31;;;;;;;9.40;3.50;;;;;;;6.23;100.00;100581.13;10376252;28;20037;-79
2023/04/11 05:02:31;;;;;;;12.77;3.75;;;;;;;6.29;100.00;100584.00;10361412;28;20034;-79
2023/04/11 05:07:31;;;;;;;8.65;3.42;;;;;;;6.42;100.00;100594.75;10343841;28;20073;-79
2023/04/11 05:12:32;;;;;;;26.60;4.60;;;;;;;6.25;100.00;100568.06;10379860;28;20037;-79
2023/04/11 05:17:32;;;;;;;15.48;2.83;;;;;;;6.31;100.00;100585.44;10360380;28;20045;-80
2023/04/11 05:22:33;;;;;;;12.90;2.83;;;;;;;6.32;100.00;100575.34;10342557;28;20038;-77
2023/04/11 05:27:34;;;;;;;18.30;3.45;;;;;;;6.51;100.00;100619.84;10376778;28;20630;-76
2023/04/11 05:32:34;;;;;;;12.85;3.38;;;;;;;6.56;100.00;100604.41;10376221;28;20045;-68
2023/04/11 05:37:36;;;;;;;17.00;4.10;;;;;;;6.49;100.00;100595.50;10360691;28;20030;-75
2023/04/11 05:42:36;;;;;;;15.68;3.30;;;;;;;6.68;100.00;100609.91;10361505;28;20513;-77
2023/04/11 05:47:37;;;;;;;14.90;3.40;;;;;;;6.74;100.00;100622.66;10377530;28;20077;-77
2023/04/11 05:52:37;;;;;;;14.15;3.05;;;;;;;6.74;100.00;100625.38;10362785;28;20053;-77
2023/04/11 05:57:38;;;;;;;14.27;4.97;;;;;;;6.83;100.00;100639.56;10373248;28;20053;-77
2023/04/11 06:02:40;;;;;;;11.98;3.63;;;;;;;6.78;100.00;100625.72;10358457;28;20054;-76
2023/04/11 06:07:41;;;;;;;12.80;3.38;;;;;;;6.84;100.00;100641.19;10342537;28;20041;-76
2023/04/11 06:12:42;;;;;;;12.57;2.83;;;;;;;6.84;100.00;100646.69;10359658;28;20037;-76
2023/04/11 06:17:43;;;;;;;13.40;3.97;;;;;;;6.83;100.00;100650.50;10357532;28;20030;-75
2023/04/11 06:22:45;;;;;;;13.93;3.10;;;;;;;6.90;100.00;100650.38;10363147;28;20042;-76
2023/04/11 06:27:46;;;;;;;13.15;3.58;;;;;;;6.92;100.00;100657.28;10338593;28;20038;-77
2023/04/11 06:32:46;;;;;;;11.20;2.83;;;;;;;6.98;100.00;100661.00;10388046;28;20054;-74
2023/04/11 06:37:47;;;;;;;9.88;2.63;;;;;;;7.01;100.00;100666.84;10393431;28;20049;-76
2023/04/11 06:42:47;;;;;;;8.90;3.45;;;;;;;7.02;100.00;100665.75;10410522;28;20034;-71
2023/04/11 06:47:48;;;;;;;4.90;2.42;;;;;;;7.07;100.00;100674.09;10399901;28;20604;-78
2023/04/11 06:52:49;;;;;;;15.57;3.40;;;;;;;6.36;100.00;100535.53;10404885;28;20052;-78
2023/04/11 06:57:49;;;;;;;13.30;2.92;;;;;;;7.23;100.00;100675.28;10397617;28;20034;-82
2023/04/11 07:02:51;;;;;;;12.77;3.03;;;;;;;7.35;100.00;100691.72;10376968;28;20033;-76
2023/04/11 07:07:53;;;;;;;12.45;2.90;;;;;;;7.46;100.00;100698.28;10375220;28;20036;-76
2023/04/11 07:12:54;;;;;;;15.50;3.15;;;;;;;7.60;100.00;100704.38;10394080;28;20040;-77
2023/04/11 07:17:55;;;;;;;15.05;3.35;;;;;;;7.66;100.00;100700.66;10370107;28;20050;-77
2023/04/11 07:22:55;;;;;;;11.70;2.88;;;;;;;7.74;100.00;100727.72;10391892;28;20034;-76
2023/04/11 07:27:56;;;;;;;9.85;2.78;;;;;;;7.85;100.00;100734.25;10373668;28;20057;-74
2023/04/11 07:32:57;;;;;;;13.15;2.53;;;;;;;8.05;100.00;100720.16;10392422;28;20121;-76
2023/04/11 07:37:57;;;;;;;11.57;2.38;;;;;;;7.71;100.00;100709.03;10378237;28;20056;-75
2023/04/11 07:42:58;;;;;;;11.25;2.20;;;;;;;7.40;100.00;100745.78;10360490;28;20037;-76
2023/04/11 07:47:59;;;;;;;12.10;2.97;;;;;;;7.48;100.00;100756.41;10376938;28;20116;-69
2023/04/11 07:53:00;;;;;;;6.40;1.50;;;;;;;7.59;100.00;100754.75;10393499;28;20048;-74
2023/04/11 07:58:00;;;;;;;7.28;2.22;;;;;;;7.47;100.00;100761.06;10361668;28;20093;-77
2023/04/11 08:03:05;;;;;;;26.60;2.97;;;;;;;7.52;100.00;100773.19;10373912;28;20547;-76
2023/04/11 08:08:05;;;;;;;13.10;1.83;;;;;;;7.79;100.00;100774.44;10367963;28;20037;-76
2023/04/11 08:13:06;;;;;;;10.93;2.05;;;;;;;7.97;100.00;100783.59;10353904;28;20148;-75
2023/04/11 08:18:06;;;;;;;7.40;2.20;;;;;;;8.19;100.00;100768.19;10390847;28;20057;-75
2023/04/11 08:23:09;;;;;;;12.57;2.03;;;;;;;8.65;100.00;100784.81;10361298;28;20041;-75
2023/04/11 08:28:11;;;;;;;13.48;2.28;;;;;;;8.79;100.00;100777.94;10369085;28;20058;-74
2023/04/11 08:33:11;;;;;;;6.47;1.40;;;;;;;8.11;100.00;100792.41;10367332;28;20057;-71
2023/04/11 08:38:12;;;;;;;7.60;2.08;;;;;;;6.88;100.00;100820.28;10336896;28;20042;-79
2023/04/11 08:43:12;;;;;;;10.35;2.08;;;;;;;6.70;100.00;100803.91;10370348;28;20069;-76
2023/04/11 08:48:13;;;;;;;8.52;2.20;;;;;;;7.28;100.00;100820.56;10368092;28;20096;-76
2023/04/11 08:53:14;;;;;;;12.73;2.70;;;;;;;7.74;100.00;100826.38;10335313;28;20084;-75
2023/04/11 08:58:15;;;;;;;7.07;1.98;;;;;;;7.96;100.00;100823.88;10351847;28;20042;-75
2023/04/11 09:03:15;;;;;;;8.10;2.10;;;;;;;8.39;100.00;100822.66;10374294;28;20122;-75
2023/04/11 09:08:16;;;;;;;8.32;1.60;;;;;;;8.52;100.00;100815.28;10344946;28;20044;-75
2023/04/11 09:13:21;;;;;;;7.35;2.15;;;;;;;8.65;100.00;100796.59;10359863;28;20037;-74
2023/04/11 09:18:44;;;;;;;7.13;1.67;;;;;;;8.65;100.00;100804.00;10359598;28;20041;-71
2023/04/11 09:23:45;;;;;;;9.02;1.88;;;;;;;8.91;100.00;100813.59;10350564;28;20056;-69
2023/04/11 09:28:52;;;;;;;7.40;1.40;;;;;;;8.37;100.00;100758.13;10335202;28;20033;-74
2023/04/11 09:33:57;;;;;;;5.13;1.25;;;;;;;7.81;100.00;100864.63;10353942;28;20559;-76
2023/04/11 09:38:58;;;;;;;5.78;0.98;;;;;;;7.23;100.00;100866.97;10335011;28;20044;-78
2023/04/11 09:43:58;;;;;;;3.53;1.48;;;;;;;7.31;100.00;100876.75;10340706;28;20065;-75
2023/04/11 09:49:02;;;;;;;6.25;1.45;;;;;;;7.01;100.00;100879.50;10368661;28;20068;-74
2023/04/11 09:54:02;;;;;;;3.63;1.02;;;;;;;7.34;100.00;100878.19;10382914;28;20068;-73
2023/04/11 09:59:03;;;;;;;6.28;2.08;;;;;;;8.01;100.00;100862.38;10382900;28;20029;-72
2023/04/11 10:04:04;;;;;;;9.20;1.27;;;;;;;8.68;100.00;100883.97;10400459;28;20033;-74
2023/04/11 10:09:09;;;;;;;5.50;1.52;;;;;;;9.18;100.00;100856.97;10415202;28;20064;-72
2023/04/11 10:14:38;;;;;;;8.48;1.40;;;;;;;9.59;100.00;100861.28;10401442;28;20045;-72
2023/04/11 10:19:39;;;;;;;5.05;1.13;;;;;;;10.06;100.00;100866.44;10389831;28;20049;-75
2023/04/11 10:24:39;;;;;;;5.30;1.80;;;;;;;10.36;100.00;100868.03;10358108;28;20037;-76
2023/04/11 10:29:49;;;;;;;6.80;1.70;;;;;;;9.80;100.00;100851.47;10375774;28;20822;-74
2023/04/11 10:34:49;;;;;;;8.98;2.03;;;;;;;8.40;100.00;100911.28;10357730;28;20041;-71
2023/04/11 10:39:50;;;;;;;10.80;2.25;;;;;;;7.80;100.00;100921.34;10380054;28;20525;-80
2023/04/11 10:45:25;;;;;;;6.78;1.48;;;;;;;7.66;100.00;100919.88;10379640;28;20049;-75
2023/04/11 10:50:28;;;;;;;8.80;2.65;;;;;;;7.29;100.00;100939.16;10364651;28;20049;-72
2023/04/11 10:55:31;;;;;;;7.63;2.15;;;;;;;6.61;100.00;100959.31;10403340;28;20046;-72
2023/04/11 11:00:50;;;;;;;5.65;1.30;;;;;;;6.35;100.00;100979.56;10348409;28;20049;-76
2023/04/11 11:06:04;;;;;;;4.30;2.40;;;;;;;6.07;100.00;100992.59;10357738;28;20048;-70
2023/04/11 11:11:05;;;;;;;3.67;0.90;;;;;;;5.66;100.00;101003.97;10360015;28;20065;-72
2023/04/11 11:16:07;;;;;;;3.47;0.88;;;;;;;5.53;100.00;100995.84;10342438;28;20057;-73
2023/04/11 11:21:07;;;;;;;1.85;1.02;;;;;;;5.41;100.00;100988.31;10358503;28;20038;-74
2023/04/11 11:26:07;;;;;;;4.20;0.80;;;;;;;5.74;100.00;100972.81;10390937;28;20040;-74
2023/04/11 11:31:08;;;;;;;6.15;1.45;;;;;;;6.33;100.00;100987.16;10341874;28;20069;-71
2023/04/11 11:36:09;;;;;;;7.55;1.98;;;;;;;6.62;100.00;101005.59;10389903;28;20632;-73
2023/04/11 11:41:10;;;;;;;8.13;1.05;;;;;;;6.61;100.00;100992.13;10391414;28;20061;-76
2023/04/11 11:46:13;;;;;;;4.65;1.52;;;;;;;6.55;100.00;100996.63;10341129;28;20493;-76
2023/04/11 11:51:14;;;;;;;3.45;0.70;;;;;;;6.16;100.00;101017.78;10342220;28;20073;-74
2023/04/11 11:56:15;;;;;;;6.20;0.82;;;;;;;6.29;100.00;101005.06;10356480;28;20485;-76
2023/04/11 12:01:16;;;;;;;4.65;0.80;;;;;;;7.25;100.00;101014.59;10343184;28;20076;-76
2023/04/11 12:06:16;;;;;;;11.18;1.08;;;;;;;8.05;100.00;101019.03;10376466;28;20087;-76
2023/04/11 12:11:17;;;;;;;8.07;2.10;;;;;;;8.82;100.00;101029.19;10371356;28;20045;-75
2023/04/11 12:16:20;;;;;;;5.93;1.58;;;;;;;8.35;100.00;101013.50;10357646;28;20070;-72
2023/04/11 12:21:21;;;;;;;7.20;1.08;;;;;;;8.07;100.00;101034.16;10342366;28;20068;-73
2023/04/11 12:26:22;;;;;;;6.72;0.77;;;;;;;7.66;100.00;101021.25;10338643;28;20041;-74
2023/04/11 12:31:24;;;;;;;6.82;2.28;;;;;;;7.78;100.00;101027.63;10383043;28;20049;-75
2023/04/11 12:36:25;;;;;;;6.72;1.00;;;;;;;9.29;100.00;101034.63;10374500;28;20567;-76
2023/04/11 12:41:25;;;;;;;7.65;2.08;;;;;;;10.75;100.00;101010.34;10360389;28;20045;-74
2023/04/11 12:46:26;;;;;;;4.47;1.40;;;;;;;11.75;100.00;101015.81;10378144;28;20071;-76
2023/04/11 12:51:26;;;;;;;8.02;1.40;;;;;;;11.28;100.00;101028.19;10393923;28;20045;-74
2023/04/11 12:56:26;;;;;;;12.27;1.77;;;;;;;11.03;100.00;101017.66;10366262;28;20041;-74
2023/04/11 13:01:27;;;;;;;11.63;2.25;;;;;;;10.33;100.00;101013.53;10367892;28;20088;-71
2023/04/11 13:06:28;;;;;;;12.32;1.73;;;;;;;11.03;100.00;101021.25;10366822;28;20054;-74
2023/04/11 13:11:29;;;;;;;13.15;2.30;;;;;;;10.83;100.00;101027.31;10352640;28;20064;-73
2023/04/11 13:16:29;;;;;;;11.50;2.30;;;;;;;10.26;100.00;101027.44;10390724;28;20064;-74
2023/04/11 13:21:31;;;;;;;4.75;1.40;;;;;;;10.11;100.00;101058.28;10394569;28;20041;-75
2023/04/11 13:26:33;;;;;;;6.53;1.60;;;;;;;10.70;100.00;101031.22;10376380;28;20053;-74
2023/04/11 13:31:33;;;;;;;9.75;1.60;;;;;;;11.69;100.00;101048.00;10358222;28;20060;-74
2023/04/11 13:36:34;;;;;;;10.75;2.58;;;;;;;12.39;100.00;101024.22;10357865;28;20553;-75
2023/04/11 13:41:35;;;;;;;8.98;1.80;;;;;;;11.37;100.00;101031.34;10358476;28;20249;-75
2023/04/11 13:46:35;;;;;;;9.27;1.90;;;;;;;12.19;100.00;101048.84;10393343;28;20384;-75
2023/04/11 13:51:35;;;;;;;10.60;2.30;;;;;;;12.78;100.00;101031.44;10377145;28;20080;-74
2023/04/11 13:56:36;;;;;;;8.45;3.42;;;;;;;13.50;100.00;101025.22;10366840;28;20073;-75
2023/04/11 14:01:36;;;;;;;8.38;1.70;;;;;;;14.37;100.00;101023.78;10401980;28;20684;-73
2023/04/11 14:06:38;;;;;;;8.45;2.33;;;;;;;15.01;100.00;100992.69;10377374;28;20049;-75
2023/04/11 14:11:39;;;;;;;8.02;2.58;;;;;;;14.59;98.92;100996.63;10366273;28;20517;-74
2023/04/11 14:16:40;;;;;;;10.60;1.67;;;;;;;14.47;98.33;101009.91;10359213;28;20171;-74
2023/04/11 14:21:40;;;;;;;7.00;1.60;;;;;;;13.60;97.88;101018.06;10379180;28;20092;-74
2023/04/11 14:26:41;;;;;;;10.48;2.63;;;;;;;11.88;100.00;101046.59;10363422;28;20033;-74
2023/04/11 14:31:41;;;;;;;7.95;1.13;;;;;;;12.33;100.00;101014.22;10347755;28;20072;-73
2023/04/11 14:36:42;;;;;;;9.38;1.67;;;;;;;12.45;100.00;101052.72;10348086;28;20061;-74
2023/04/11 14:41:42;;;;;;;8.52;1.55;;;;;;;11.24;100.00;101065.63;10365239;28;20571;-74
2023/04/11 14:46:43;;;;;;;9.30;1.80;;;;;;;11.47;100.00;101070.91;10381694;28;20421;-72
2023/04/11 14:51:43;;;;;;;8.02;1.42;;;;;;;11.25;100.00;101059.03;10360748;28;20064;-67
2023/04/11 14:56:43;;;;;;;5.45;1.13;;;;;;;12.20;100.00;101054.13;10363771;28;20029;-74
2023/04/11 15:01:44;;;;;;;14.98;2.17;;;;;;;12.52;100.00;101047.78;10378874;28;20165;-75
2023/04/11 15:06:45;;;;;;;6.82;1.40;;;;;;;13.67;98.90;101058.22;10345409;28;20037;-76
2023/04/11 15:11:46;;;;;;;4.97;1.30;;;;;;;13.97;90.29;101039.19;10363664;28;20489;-75
2023/04/11 15:16:46;;;;;;;4.20;1.20;;;;;;;15.11;89.30;101031.50;10380975;28;20038;-74
2023/04/11 15:21:47;;;;;;;8.32;1.35;;;;;;;14.51;83.88;101033.16;10363593;28;20405;-75
2023/04/11 15:26:47;;;;;;;5.90;1.08;;;;;;;13.80;85.70;101033.91;10361735;28;20038;-75
2023/04/11 15:31:48;;;;;;;6.85;1.33;;;;;;;12.78;83.73;101039.72;10376457;28;20034;-75
2023/04/11 15:36:48;;;;;;;6.72;1.20;;;;;;;13.98;84.70;101040.88;10328759;28;20048;-72
2023/04/11 15:41:49;;;;;;;7.00;1.40;;;;;;;13.95;81.74;101038.66;10396279;28;20042;-74
2023/04/11 15:46:50;;;;;;;5.53;0.90;;;;;;;13.09;79.74;101041.56;10361641;28;20084;-76
2023/04/11 15:51:50;;;;;;;8.02;1.10;;;;;;;13.35;80.14;101050.03;10375305;28;20108;-75
2023/04/11 15:56:50;;;;;;;6.22;1.33;;;;;;;14.15;78.55;101008.22;10344086;28;20045;-76
2023/04/11 16:01:51;;;;;;;6.30;1.58;;;;;;;14.54;76.45;101000.22;10359132;28;20057;-75
2023/04/11 16:06:51;;;;;;;6.22;1.27;;;;;;;14.91;72.89;101014.91;10376874;28;20041;-75
2023/04/11 16:11:52;;;;;;;6.15;0.90;;;;;;;15.23;72.70;101010.94;10394872;28;20048;-75
2023/04/11 16:16:53;;;;;;;8.05;2.17;;;;;;;14.53;72.69;101025.41;10382033;28;20045;-77
2023/04/11 16:21:53;;;;;;;7.72;1.63;;;;;;;14.62;74.39;101031.28;10337113;28;20043;-73
2023/04/11 16:26:55;;;;;;;9.15;1.17;;;;;;;14.04;76.33;101004.63;10393265;28;20052;-76
2023/04/11 16:31:56;;;;;;;7.38;1.52;;;;;;;14.20;76.79;101018.47;10377224;28;20113;-75
2023/04/11 16:36:56;;;;;;;8.40;1.40;;;;;;;13.75;78.17;101026.44;10393459;28;20033;-76
2023/04/11 16:41:57;;;;;;;5.80;1.02;;;;;;;14.53;76.91;101011.56;10410535;28;20026;-75
2023/04/11 16:46:57;;;;;;;10.65;1.75;;;;;;;14.53;77.76;101008.78;10393768;28;20042;-76
2023/04/11 16:51:58;;;;;;;8.63;1.55;;;;;;;13.23;78.16;100983.03;10416919;28;20041;-76
2023/04/11 16:56:58;;;;;;;7.45;1.20;;;;;;;12.03;81.14;101003.72;10396969;28;20473;-76
2023/04/11 17:01:59;;;;;;;8.43;1.25;;;;;;;11.39;83.90;101009.84;10377688;28;20493;-75
2023/04/11 17:06:59;;;;;;;12.38;2.35;;;;;;;10.60;85.57;101006.28;10382154;28;20482;-76
2023/04/11 17:12:02;;;;;;;6.47;1.15;;;;;;;10.54;85.88;101012.78;10402334;28;20037;-75
2023/04/11 17:17:02;;;;;;;6.30;1.13;;;;;;;10.45;86.23;101014.31;10390171;28;20172;-75
2023/04/11 17:22:04;;;;;;;7.25;1.40;;;;;;;10.49;84.89;101004.47;10382560;28;20388;-75
2023/04/11 17:27:05;;;;;;;11.60;1.58;;;;;;;10.15;86.45;101009.06;10400297;28;20029;-73
2023/04/11 17:32:06;;;;;;;8.70;1.70;;;;;;;9.77;87.37;101016.09;10415690;28;20060;-77
2023/04/11 17:37:06;;;;;;;6.97;0.90;;;;;;;9.48;88.72;101024.31;10421097;28;20485;-75
2023/04/11 17:42:07;;;;;;;6.70;1.55;;;;;;;9.31;90.81;101021.50;10422257;28;20037;-71
2023/04/11 17:47:07;;;;;;;6.50;1.15;;;;;;;9.20;93.87;101038.81;10385788;28;20096;-76
2023/04/11 17:52:08;;;;;;;12.50;2.90;;;;;;;8.92;93.29;101031.34;10416898;28;20060;-76
2023/04/11 17:57:08;;;;;;;4.97;1.00;;;;;;;8.83;97.63;101041.84;10382141;28;20044;-75
2023/04/11 18:02:09;;;;;;;4.95;1.45;;;;;;;8.63;97.20;101032.03;10396671;28;20409;-75
2023/04/11 18:07:10;;;;;;;7.65;1.48;;;;;;;8.49;100.00;101036.06;10388354;28;20029;-74
2023/04/11 18:12:10;;;;;;;7.63;1.20;;;;;;;8.28;100.00;101051.16;10397360;28;20048;-75
2023/04/11 18:17:11;;;;;;;9.45;1.73;;;;;;;8.05;100.00;101050.00;10415620;28;20464;-75
2023/04/11 18:22:11;;;;;;;4.78;2.00;;;;;;;7.76;100.00;101061.81;10377205;28;20056;-74
2023/04/11 18:27:12;;;;;;;9.63;1.75;;;;;;;7.37;100.00;101039.34;10416076;28;20034;-75
2023/04/11 18:32:12;;;;;;;7.57;1.23;;;;;;;7.15;100.00;101064.44;10397929;28;20034;-76
2023/04/11 18:37:13;;;;;;;7.18;1.35;;;;;;;6.81;100.00;101063.09;10397653;28;20457;-75
2023/04/11 18:42:13;;;;;;;12.15;1.77;;;;;;;6.43;100.00;101036.72;10375295;28;20038;-75
2023/04/11 18:47:14;;;;;;;9.07;1.70;;;;;;;6.28;100.00;101052.59;10397333;28;20068;-75
2023/04/11 18:52:14;;;;;;;5.03;1.90;;;;;;;6.01;100.00;101030.91;10380288;28;20041;-76
2023/04/11 18:57:15;;;;;;;5.63;1.30;;;;;;;5.93;100.00;101044.78;10396001;28;20056;-75
2023/04/11 19:02:16;;;;;;;6.28;1.50;;;;;;;5.71;100.00;101027.91;10397332;28;20064;-71
2023/04/11 19:07:16;;;;;;;4.28;1.40;;;;;;;5.55;100.00;101038.25;10397135;28;20041;-75
2023/04/11 19:12:18;;;;;;;7.80;1.70;;;;;;;5.42;100.00;101030.97;10362034;28;20034;-76
2023/04/11 19:17:18;;;;;;;6.25;1.77;;;;;;;5.26;100.00;101009.63;10379024;28;20067;-76
2023/04/11 19:22:19;;;;;;;8.90;2.03;;;;;;;5.26;100.00;101024.09;10412351;28;20034;-76
2023/04/11 19:27:20;;;;;;;6.53;2.60;;;;;;;5.15;100.00;101021.22;10412709;28;20033;-74
2023/04/11 19:32:21;;;;;;;9.20;2.45;;;;;;;4.94;100.00;101011.38;10369503;28;20064;-76
2023/04/11 19:37:22;;;;;;;7.93;2.30;;;;;;;4.89;100.00;101017.50;10358127;28;20080;-75
2023/04/11 19:42:23;;;;;;;10.13;2.42;;;;;;;4.72;100.00;100999.91;10377869;28;20045;-76
2023/04/11 19:47:24;;;;;;;7.63;2.35;;;;;;;4.71;100.00;100992.75;10405347;28;20042;-75
2023/04/11 19:52:25;;;;;;;9.32;2.20;;;;;;;4.76;100.00;100995.72;10360118;28;20045;-75
2023/04/11 19:57:26;;;;;;;6.68;1.85;;;;;;;4.57;100.00;100973.72;10344582;28;20047;-74
2023/04/11 20:02:27;;;;;;;7.38;2.05;;;;;;;4.61;100.00;100996.78;10356988;28;20068;-75
2023/04/11 20:07:27;;;;;;;7.38;2.00;;;;;;;4.47;100.00;100984.22;10365400;28;20049;-75
2023/04/11 20:12:28;;;;;;;14.40;2.70;;;;;;;4.33;100.00;100968.91;10376827;28;20056;-75
2023/04/11 20:17:28;;;;;;;6.35;2.58;;;;;;;4.27;100.00;100964.31;10368686;28;20037;-74
2023/04/11 20:22:29;;;;;;;5.28;1.65;;;;;;;4.23;100.00;100959.25;10387500;28;20060;-74
2023/04/11 20:27:30;;;;;;;7.25;2.60;;;;;;;4.19;100.00;100968.06;10394466;28;20464;-75
2023/04/11 20:32:31;;;;;;;13.57;3.33;;;;;;;4.10;100.00;100953.81;10394736;28;20065;-75
2023/04/11 20:37:33;;;;;;;5.72;2.97;;;;;;;3.98;100.00;100939.16;10407638;28;20045;-75
2023/04/11 20:42:38;;;;;;;16.02;2.30;;;;;;;3.94;100.00;100937.91;10367329;28;20046;-75
2023/04/11 20:47:39;;;;;;;4.77;1.97;;;;;;;3.90;100.00;100931.19;10374994;28;20088;-75
2023/04/11 20:52:41;;;;;;;9.07;1.75;;;;;;;3.91;100.00;100922.00;10389507;28;20042;-75
2023/04/11 20:57:41;;;;;;;8.20;2.72;;;;;;;3.90;100.00;100910.22;10371695;28;20042;-75
2023/04/11 21:02:44;;;;;;;5.95;1.95;;;;;;;3.90;100.00;100896.63;10373782;28;20428;-75
2023/04/11 21:07:45;;;;;;;9.95;1.83;;;;;;;3.94;100.00;100883.41;10370587;28;20042;-75
2023/04/11 21:12:50;;;;;;;11.60;2.90;;;;;;;3.95;100.00;100847.81;10359345;28;20042;-75
2023/04/11 21:17:51;;;;;;;8.35;2.33;;;;;;;4.17;100.00;100850.28;10368977;28;20119;-76
2023/04/11 21:22:52;;;;;;;11.27;2.67;;;;;;;4.29;100.00;100848.56;10363998;28;20060;-76
2023/04/11 21:27:52;;;;;;;5.20;1.52;;;;;;;4.36;100.00;100852.13;10374928;28;20034;-76
2023/04/11 21:32:53;;;;;;;11.15;4.00;;;;;;;4.41;100.00;100837.84;10369590;28;20064;-75
2023/04/11 21:37:54;;;;;;;6.20;2.30;;;;;;;4.49;100.00;100832.16;10372479;28;20034;-75
2023/04/11 21:42:54;;;;;;;10.07;2.22;;;;;;;4.54;100.00;100820.59;10368828;28;20057;-75
2023/04/11 21:47:55;;;;;;;10.60;2.33;;;;;;;4.38;100.00;100802.84;10374446;28;20029;-75
2023/04/11 21:52:55;;;;;;;7.57;2.15;;;;;;;4.51;100.00;100810.97;10375934;28;20107;-75
2023/04/11 21:57:56;;;;;;;5.30;2.10;;;;;;;4.42;100.00;100782.28;10402443;28;20076;-75
2023/04/11 22:02:57;;;;;;;8.70;2.10;;;;;;;4.47;100.00;100796.09;10380317;28;20053;-71
2023/04/11 22:08:11;;;;;;;7.68;1.67;;;;;;;4.44;100.00;100780.16;10431048;28;20033;-75
2023/04/11 22:13:16;;;;;;;6.80;1.77;;;;;;;4.39;100.00;100780.00;10387707;28;20524;-75
2023/04/11 22:18:16;;;;;;;6.95;1.60;;;;;;;4.43;100.00;100756.69;10392520;28;20473;-76
2023/04/11 22:23:17;;;;;;;3.58;1.35;;;;;;;4.61;100.00;100750.50;10379396;28;20041;-75
2023/04/11 22:28:19;;;;;;;11.43;2.58;;;;;;;4.69;100.00;100743.97;10377264;28;20068;-75
2023/04/11 22:33:20;;;;;;;4.55;1.45;;;;;;;4.79;100.00;100747.06;10398124;28;20033;-75
2023/04/11 22:38:23;;;;;;;5.95;1.55;;;;;;;4.84;100.00;100725.44;10393242;28;20029;-75
2023/04/11 22:43:29;;;;;;;5.63;1.75;;;;;;;4.94;100.00;100714.00;10397050;28;20089;-75
2023/04/11 22:48:30;;;;;;;4.95;1.27;;;;;;;5.13;100.00;100704.03;10414545;28;20036;-76
2023/04/11 22:53:30;;;;;;;6.00;1.48;;;;;;;5.17;100.00;100677.97;10377012;28;20045;-74
2023/04/11 22:58:31;;;;;;;8.32;2.10;;;;;;;5.19;100.00;100673.13;10361978;28;20061;-75